Bradley International Airport
KBDL : now visible

Airfield :











YOU CAN JOIN US ON...

 
LOGIN :

Register | Disclaimer

   EN    FR    IT 

 









Legend :    VFR   Marginal VFR   IFR   Intensive IFR   Very Intensive IFR
Visi :
Ceiling :
>= 8 km
>= 3000ft
5 to 8 km
1000 to 3000 ft
1500m to 5 km
500 to 1000 ft
800 to 1500m
200 to 500 ft
< 800m
< 200 ft
Symbols :   Thunderstorms  Fog  Heavy snow  Heavy precipitations  Wind > 20 kt






- Airport Elevation : 173 ft
- IATA code : BDL


KBDL - Bradley International

CURRENT METAR :
  • 250651Z 01006KT 10SM BKN020 BKN250 01/M01 A3031 RMK AO2 SLP265 T00111011

EXPIRED METARs :
  • 250551Z 01006KT 10SM BKN018 01/M01 A3032 RMK AO2 SLP270 4/002 T00111011 10033 21017 56016
  • 250451Z 03005KT 10SM BKN018 00/M02 A3033 RMK AO2 SLP274 T00001022 400891056

TAF KBDL
Valid from the 25 at 06:00 until the 26 at 12:00 UTC


250534Z 2506/2612 02005KT P6SM BKN015
FM251700 06009KT P6SM VCSH OVC010
FM252000 09010G21KT 3SM -RA OVC010
FM252200 10010G18KT 1 1/2SM RA BR OVC008
FM260000 09011KT 1 1/2SM +RA BR OVC008
FM260200 10006KT 1SM BR OVC008
FM260600 24003KT P6SM BKN025



MET'MAP, your aeronautical weather chart ! - Copyright ORBIFLY December 2007 - Disclaimer

ORBIFLY MET'MAP TEAM :

Programming & Development : Alexandra Zaïnal
Concept & original design : Baudouin d'Aumeries
Assistance for programming : Marc-Olivier Méhu
Technical & hardware support : Manuel Goepfert

Contact : metmap@orbifly.com




SOURCES & CREDITS :

   NOAA       Earth
Advisory